Flugplatz Paderborn Lippstadt

Bericht für EDLP

vom 24.05. um 04:50 UTC

variable Windrichtung mit 2 kt

Sichtweite 10 km oder mehr

gute Sicht, keine Wolken < 5000 ft, keine CB, keine Wettererscheinungen (CAVOK)

Temperatur 14.0°C

Taupunkt 11.0°C

Luftfeuchtigkeit 82%

Luftdruck 1020 hPa

EDLP 240450Z VRB02KT CAVOK 14/11 Q1020

Prognose für EDLP

vom 23.05. um 23:00 UTC

Zwischen 00:00 UTC und 06:00 UTC

Wind 5 kt aus 90°

Sichtweite 10 km oder mehr

keine signifikanten Wettererscheinungen

keine Wolken


Zwischen 06:00 und 09:00 UTC übergehend zu

Wind 10 kt aus 100°

Sichtweite 10 km oder mehr

keine signifikanten Wettererscheinungen

keine Wolken


Zwischen 17:00 UTC und 22:00 UTC zeitweise mit einer Wahrscheinlichkeit von 30%

Wind 15 kt aus 170°

Code: TSRA

aufgebrochene Bewölkung in 3000 ft


Zwischen 17:00 und 20:00 UTC übergehend zu

Wind 5 kt aus 100°

Sichtweite 10 km oder mehr

keine signifikanten Wettererscheinungen

keine Wolken

TAF EDLP 232300Z 2400/2424 09005KT CAVOK BECMG 2406/2409 10010KT PROB30 TEMPO 2417/2422 17015KT TSRA BKN030CB BECMG 2417/2420 10005KT
Impressum